KOXC/OXC METAR and TAF weather

Enter ICAO airport designator
Station Type Date Time Source
KOXC METAR 2019/08/17 10:51 UTC NOAA

KOXC 171051Z 00000KT 1SM BR VV002 19/19 A3007 RMK AO2 SLP190 T01940194


Station Type Date Time Source
KOXC Decoded METAR 2019/08/17 10:51 UTC NOAA

Station name not available
Aug 17, 2019 - 06:51 AM EDT / 2019.08.17 1051 UTC
Wind: Calm:0
Visibility: 1 mile(s):0
Sky conditions: obscured
Weather: mist
Temperature: 66.9 F (19.4 C)
Dew Point: 66.9 F (19.4 C)
Relative Humidity: 100%
Pressure (altimeter): 30.07 in. Hg (1018 hPa)
ob: KOXC 171051Z 00000KT 1SM BR VV002 19/19 A3007 RMK AO2 SLP190 T01940194
cycle: 11

Station Type Date Time Source
KOXC TAF UTC NOAA

Error!

Example: see airport list